Time;durP1;ratioP1;P1;durP2;ratioP2;P2;SDS_P1;SDS_P2;PMS_P1;PMS_P2;Temp;Humidity;BMP_temperature;BMP_pressure;BME280_temperature;BME280_humidity;BME280_pressure;Samples;Min_cycle;Max_cycle;Signal;HPM_P1;HPM_P2
2023/08/22 00:00:52;;;;;;;10.70;9.07;;;;;;;30.45;47.22;100203.37;4464406;32;34433;-79
2023/08/22 00:03:20;;;;;;;9.43;7.90;;;;;;;30.76;46.34;100209.47;4464637;32;33819;-79
2023/08/22 00:05:47;;;;;;;10.30;8.80;;;;;;;30.62;46.63;100201.03;4466383;32;33566;-79
2023/08/22 00:08:15;;;;;;;11.05;9.30;;;;;;;30.41;47.19;100215.06;4465441;32;34522;-80
2023/08/22 00:10:43;;;;;;;10.93;8.88;;;;;;;30.16;47.95;100197.94;4467218;32;34415;-80
2023/08/22 00:13:10;;;;;;;10.57;9.20;;;;;;;29.84;48.76;100201.53;4466822;32;34387;-80
2023/08/22 00:15:37;;;;;;;9.82;8.55;;;;;;;29.99;48.33;100195.75;4466983;32;33621;-80
2023/08/22 00:18:05;;;;;;;13.68;9.18;;;;;;;29.92;48.54;100204.88;4466001;32;34539;-80
2023/08/22 00:20:34;;;;;;;10.85;8.75;;;;;;;30.11;47.87;100199.84;4466495;32;33584;-79
2023/08/22 00:23:03;;;;;;;11.02;8.88;;;;;;;30.77;46.14;100195.19;4463906;32;33768;-80
2023/08/22 00:25:31;;;;;;;9.88;8.43;;;;;;;30.57;46.75;100192.28;4464852;32;33256;-80
2023/08/22 00:27:59;;;;;;;11.63;9.00;;;;;;;30.05;48.14;100204.50;4466272;32;34449;-81
2023/08/22 00:30:26;;;;;;;12.95;9.05;;;;;;;29.63;49.33;100207.44;4466610;32;33600;-80
2023/08/22 00:32:54;;;;;;;12.23;9.40;;;;;;;29.87;48.84;100205.94;4464946;32;33383;-81
2023/08/22 00:35:24;;;;;;;10.90;8.50;;;;;;;29.88;48.73;100200.56;4463645;32;33578;-80
2023/08/22 00:37:52;;;;;;;14.35;9.40;;;;;;;30.15;48.12;100206.00;4466386;32;33596;-81
2023/08/22 00:40:20;;;;;;;12.27;9.43;;;;;;;29.92;48.85;100204.88;4466492;32;34454;-80
2023/08/22 00:42:48;;;;;;;11.88;9.50;;;;;;;29.52;49.73;100203.28;4466269;32;34706;-81
2023/08/22 00:45:15;;;;;;;10.07;8.98;;;;;;;29.57;49.67;100198.69;4464545;32;34088;-80
2023/08/22 00:47:43;;;;;;;10.70;8.88;;;;;;;29.83;48.95;100197.13;4463744;32;33799;-80
2023/08/22 00:50:11;;;;;;;11.93;9.68;;;;;;;29.87;48.72;100197.91;4460617;32;34485;-80
2023/08/22 00:52:39;;;;;;;11.07;9.30;;;;;;;29.95;48.63;100207.44;4459142;32;33755;-81
2023/08/22 00:55:07;;;;;;;9.77;8.18;;;;;;;29.71;49.27;100208.09;4459889;32;34503;-80
2023/08/22 00:57:36;;;;;;;10.15;7.75;;;;;;;30.71;46.64;100194.50;4466096;32;33878;-80
2023/08/22 01:00:05;;;;;;;;;;;;;;;31.08;45.45;100194.22;4457664;32;33304;-81
2023/08/22 01:02:33;;;;;;;;;;;;;;;31.02;45.72;100198.88;4467251;32;33892;-80
2023/08/22 01:05:01;;;;;;;;;;;;;;;31.49;44.58;100204.47;4462007;32;33183;-80
2023/08/22 01:07:49;;;;;;;;;;;;;;;31.46;44.67;100205.41;4458835;32;33667;-80
2023/08/22 01:10:19;;;;;;;;;;;;;;;31.28;44.97;100206.91;4463393;32;34035;-81
2023/08/22 01:12:49;;;;;;;;;;;;;;;31.79;43.60;100202.47;4456571;32;34939;-81
2023/08/22 01:15:26;;;;;;;;;;;;;;;31.72;43.62;100204.50;4463520;32;33606;-80
2023/08/22 01:17:57;;;;;;;;;;;;;;;31.71;43.55;100204.56;4462984;32;34681;-80
2023/08/22 01:20:27;;;;;;;;;;;;;;;31.67;43.59;100202.91;4465389;32;34943;-80
2023/08/22 01:22:55;;;;;;;;;;;;;;;31.53;43.80;100201.59;4462256;32;34785;-80
2023/08/22 01:25:23;;;;;;;;;;;;;;;31.32;44.29;100199.66;4464834;32;33444;-80
2023/08/22 01:30:40;;;;;;;;;;;;;;;31.05;44.83;100194.31;4467464;32;33762;-79
2023/08/22 01:33:30;;;;;;;;;;;;;;;31.31;44.32;100189.84;4469117;32;33849;-80
2023/08/22 01:35:57;;;;;;;;;;;;;;;31.40;44.16;100199.38;4469345;32;33263;-80
2023/08/22 01:38:26;;;;;;;;;;;;;;;31.44;44.20;100188.50;4468619;32;32574;-79
2023/08/22 01:40:53;;;;;;;;;;;;;;;31.40;44.39;100184.19;4455997;32;33386;-80
2023/08/22 01:43:21;;;;;;;;;;;;;;;31.38;44.35;100190.53;4468751;32;34166;-80
2023/08/22 01:45:49;;;;;;;;;;;;;;;31.35;44.38;100191.50;4468648;32;31959;-80
2023/08/22 01:48:17;;;;;;;;;;;;;;;31.04;45.00;100189.91;4470001;32;33541;-80
2023/08/22 01:50:44;;;;;;;;;;;;;;;31.10;44.95;100189.69;4469307;32;33700;-80
2023/08/22 01:53:11;;;;;;;;;;;;;;;31.14;44.84;100187.78;4469926;32;34348;-80
2023/08/22 01:55:39;;;;;;;;;;;;;;;31.67;43.59;100186.84;4470105;32;33839;-80
2023/08/22 01:58:10;;;;;;;;;;;;;;;31.40;44.01;100189.53;4469673;32;35371;-80
2023/08/22 02:00:38;;;;;;;;;;;;;;;31.38;44.01;100190.53;4469780;32;34041;-80
2023/08/22 02:03:06;;;;;;;;;;;;;;;31.31;44.23;100192.53;4469783;32;34730;-80
2023/08/22 02:05:34;;;;;;;;;;;;;;;31.05;44.55;100183.59;4470289;32;33914;-81
2023/08/22 02:08:03;;;;;;;;;;;;;;;31.38;43.95;100185.19;4468340;32;33420;-81
2023/08/22 02:10:31;;;;;;;;;;;;;;;31.36;43.86;100186.09;4469723;32;34771;-81
2023/08/22 02:12:59;;;;;;;;;;;;;;;31.37;43.86;100184.31;4469787;32;33997;-80
2023/08/22 02:15:27;;;;;;;;;;;;;;;31.27;44.09;100185.53;4469884;32;33543;-79
2023/08/22 02:17:55;;;;;;;;;;;;;;;31.40;43.77;100189.53;4469833;32;33881;-80
2023/08/22 02:20:23;;;;;;;9.65;7.40;;;;;;;31.30;44.09;100189.00;4469478;32;33711;-80
2023/08/22 02:22:50;;;;;;;10.05;7.93;;;;;;;31.03;44.67;100184.59;4469355;32;33886;-79
2023/08/22 02:25:18;;;;;;;11.05;7.87;;;;;;;30.84;45.07;100181.62;4469610;32;33276;-80
2023/08/22 02:27:46;;;;;;;9.68;8.15;;;;;;;30.54;45.69;100182.56;4468633;32;33907;-79
2023/08/22 02:30:13;;;;;;;10.23;8.13;;;;;;;30.88;44.87;100183.25;4469094;32;34619;-80
2023/08/22 02:32:41;;;;;;;11.68;8.25;;;;;;;30.75;45.15;100183.69;4469146;32;34460;-80
2023/08/22 02:35:09;;;;;;;12.98;8.07;;;;;;;30.64;45.36;100185.81;4469334;32;34343;-79
2023/08/22 02:37:37;;;;;;;10.07;7.90;;;;;;;30.67;45.34;100185.69;4469695;32;33863;-80
2023/08/22 02:40:09;;;;;;;9.98;7.93;;;;;;;30.57;45.54;100181.59;4469139;32;33914;-80
2023/08/22 02:42:36;;;;;;;11.90;9.27;;;;;;;30.72;45.18;100181.09;4467862;32;33294;-80
2023/08/22 02:45:05;;;;;;;12.33;9.37;;;;;;;29.79;47.53;100172.31;4468236;32;34284;-79
2023/08/22 02:47:34;;;;;;;11.80;9.45;;;;;;;29.44;48.63;100188.38;4468048;32;34959;-81
2023/08/22 02:50:01;;;;;;;12.03;9.60;;;;;;;28.90;50.10;100189.75;4468202;32;33634;-80
2023/08/22 02:52:29;;;;;;;12.27;9.82;;;;;;;29.25;49.32;100188.00;4468061;32;33866;-80
2023/08/22 02:54:57;;;;;;;10.20;8.98;;;;;;;29.37;48.98;100180.53;4467756;32;32884;-79
2023/08/22 02:57:24;;;;;;;11.95;9.52;;;;;;;29.70;48.17;100187.69;4467234;32;34215;-80
2023/08/22 02:59:52;;;;;;;11.02;7.70;;;;;;;30.09;47.12;100184.81;4469346;32;33029;-81
2023/08/22 03:02:19;;;;;;;11.52;7.93;;;;;;;30.63;45.60;100186.72;4468690;32;33919;-81
2023/08/22 03:04:47;;;;;;;11.23;7.80;;;;;;;31.05;44.58;100180.94;4469157;32;33432;-80
2023/08/22 03:07:16;;;;;;;9.95;7.70;;;;;;;31.02;44.53;100188.19;4468754;32;33922;-81
2023/08/22 03:09:44;;;;;;;11.95;7.95;;;;;;;30.66;45.38;100181.28;4468801;32;33829;-80
2023/08/22 03:12:11;;;;;;;;;;;;;;;30.65;45.44;100190.22;4469692;32;34574;-80
2023/08/22 03:14:39;;;;;;;;;;;;;;;30.24;46.52;100184.34;4469623;32;33999;-80
2023/08/22 03:17:07;;;;;;;;;;;;;;;30.46;46.14;100179.25;4468214;32;34322;-80
2023/08/22 03:19:36;;;;;;;;;;;;;;;30.53;45.86;100190.63;4469588;32;33153;-81
2023/08/22 03:22:03;;;;;;;;;;;;;;;31.05;44.51;100188.09;4468862;32;35012;-80
2023/08/22 03:24:31;;;;;;;;;;;;;;;31.37;43.75;100184.31;4469123;32;34305;-80
2023/08/22 03:26:59;;;;;;;;;;;;;;;31.09;44.31;100185.25;4469580;32;34310;-80
2023/08/22 03:29:26;;;;;;;;;;;;;;;30.97;44.61;100191.03;4469187;32;34198;-79
2023/08/22 03:31:55;;;;;;;;;;;;;;;30.75;45.19;100197.06;4468295;32;34411;-80
2023/08/22 03:34:23;;;;;;;;;;;;;;;30.85;45.10;100196.72;4468116;32;33755;-79
2023/08/22 03:36:50;;;;;;;;;;;;;;;30.66;45.51;100194.66;4468863;32;34115;-80
2023/08/22 03:39:18;;;;;;;;;;;;;;;30.38;46.22;100198.22;4468447;32;34294;-80
2023/08/22 03:41:45;;;;;;;;;;;;;;;30.32;46.48;100192.16;4468830;32;34913;-80
2023/08/22 03:44:13;;;;;;;;;;;;;;;30.04;47.07;100197.41;4469294;32;32817;-80
2023/08/22 03:46:41;;;;;;;;;;;;;;;30.25;46.62;100191.44;4468960;32;34248;-80
2023/08/22 03:49:09;;;;;;;;;;;;;;;30.27;46.73;100189.59;4469252;32;33574;-81
2023/08/22 03:51:38;;;;;;;;;;;;;;;30.13;47.08;100186.47;4468829;32;34139;-80
2023/08/22 03:54:05;;;;;;;;;;;;;;;30.15;47.02;100188.19;4468828;32;33905;-80
2023/08/22 03:56:33;;;;;;;;;;;;;;;30.43;46.28;100183.81;4468926;32;34240;-80
2023/08/22 03:59:00;;;;;;;;;;;;;;;30.45;46.14;100180.16;4468441;32;34891;-79
2023/08/22 04:01:28;;;;;;;;;;;;;;;30.52;45.98;100188.88;4468968;32;33949;-80
2023/08/22 04:03:55;;;;;;;;;;;;;;;30.67;45.63;100191.03;4468656;32;34049;-81
2023/08/22 04:06:23;;;;;;;;;;;;;;;30.66;45.58;100192.00;4469078;32;34082;-80
2023/08/22 04:08:50;;;;;;;;;;;;;;;30.57;46.01;100193.16;4469001;32;33886;-80
2023/08/22 04:11:17;;;;;;;;;;;;;;;30.47;46.20;100196.16;4468899;32;35128;-81
2023/08/22 04:13:44;;;;;;;;;;;;;;;30.93;45.07;100194.72;4468813;32;33401;-80
2023/08/22 04:16:12;;;;;;;;;;;;;;;30.86;45.14;100188.66;4469063;32;33535;-81
2023/08/22 04:18:39;;;;;;;;;;;;;;;30.96;44.90;100186.59;4468658;32;34797;-81
2023/08/22 04:21:07;;;;;;;;;;;;;;;30.91;45.03;100197.44;4469070;32;34616;-80
2023/08/22 04:23:35;;;;;;;;;;;;;;;30.99;44.80;100194.53;4468528;32;33130;-81
2023/08/22 04:26:02;;;;;;;;;;;;;;;31.04;44.68;100197.94;4469108;32;34369;-80
2023/08/22 04:28:32;;;;;;;;;;;;;;;30.56;45.73;100195.88;4461510;32;36732;-81
2023/08/22 04:31:00;;;;;;;;;;;;;;;30.52;45.93;100199.56;4462219;32;33912;-80
2023/08/22 04:33:28;;;;;;;;;;;;;;;30.34;46.46;100193.84;4466625;32;33507;-80
2023/08/22 04:35:56;;;;;;;;;;;;;;;30.30;46.63;100200.19;4466994;32;33930;-80
2023/08/22 04:38:24;;;;;;;;;;;;;;;30.27;46.81;100189.59;4466400;32;34423;-80
2023/08/22 04:40:52;;;;;;;;;;;;;;;30.25;46.97;100198.56;4465705;32;34289;-80
2023/08/22 04:43:21;;;;;;;;;;;;;;;30.57;46.25;100195.81;4467018;32;34003;-80
2023/08/22 04:45:52;;;;;;;;;;;;;;;30.95;45.44;100198.22;4466052;32;34778;-79
2023/08/22 04:48:23;;;;;;;;;;;;;;;31.03;45.23;100201.50;4465477;32;34038;-81
2023/08/22 04:50:50;;;;;;;;;;;;;;;30.83;45.72;100210.19;4460651;32;32565;-81
2023/08/22 04:53:18;;;;;;;;;;;;;;;30.87;45.79;100210.94;4467159;32;33354;-81
2023/08/22 04:55:45;;;;;;;;;;;;;;;30.82;45.91;100207.53;4464388;32;34834;-79
2023/08/22 04:58:12;;;;;;;;;;;;;;;30.76;46.10;100203.25;4466241;32;33987;-80
2023/08/22 05:00:40;;;;;;;;;;;;;;;30.57;46.45;100213.66;4464947;32;34882;-80
2023/08/22 05:03:08;;;;;;;;;;;;;;;30.54;46.67;100216.44;4467409;32;34325;-81
2023/08/22 05:05:35;;;;;;;;;;;;;;;30.50;46.98;100217.44;4466860;32;34951;-81
2023/08/22 05:08:03;;;;;;;;;;;;;;;30.56;46.91;100225.28;4466264;32;34271;-80
2023/08/22 05:10:30;;;;;;;;;;;;;;;30.81;46.32;100221.81;4463472;32;34794;-80
2023/08/22 05:12:57;;;;;;;;;;;;;;;31.14;45.58;100220.75;4466459;32;33418;-81
2023/08/22 05:15:25;;;;;;;;;;;;;;;31.01;46.05;100223.91;4467418;32;34243;-80
2023/08/22 05:17:53;;;;;;;;;;;;;;;31.17;45.85;100231.34;4467329;32;34752;-81
2023/08/22 05:20:23;;;;;;;;;;;;;;;31.28;45.66;100228.31;4467308;32;34709;-81
2023/08/22 05:22:51;;;;;;;;;;;;;;;31.20;45.92;100226.84;4466695;32;32829;-80
2023/08/22 05:25:18;;;;;;;;;;;;;;;31.06;46.32;100230.84;4467471;32;33709;-80
2023/08/22 05:27:46;;;;;;;;;;;;;;;30.89;46.95;100241.19;4467005;32;33960;-80
2023/08/22 05:30:13;;;;;;;;;;;;;;;30.68;47.50;100232.91;4455035;32;34661;-81
2023/08/22 05:32:41;;;;;;;;;;;;;;;31.14;46.45;100231.47;4466871;32;33982;-81
2023/08/22 05:35:08;;;;;;;11.65;9.35;;;;;;;30.98;46.96;100232.03;4466745;32;34101;-81
2023/08/22 05:37:37;;;;;;;11.50;9.55;;;;;;;30.84;47.32;100221.75;4466512;32;33548;-81
2023/08/22 05:40:08;;;;;;;11.38;9.15;;;;;;;30.74;47.71;100227.37;4466377;32;32973;-82
2023/08/22 05:42:36;;;;;;;11.77;9.85;;;;;;;30.84;47.73;100227.09;4466438;32;33072;-81
2023/08/22 05:45:04;;;;;;;14.98;10.48;;;;;;;31.01;47.47;100230.13;4466738;32;34062;-80
2023/08/22 05:47:51;;;;;;;12.68;10.07;;;;;;;30.85;48.16;100234.16;4466274;32;34414;-80
2023/08/22 05:50:19;;;;;;;16.45;10.07;;;;;;;31.12;47.85;100238.69;4454616;32;34013;-81
2023/08/22 05:52:46;;;;;;;16.42;10.48;;;;;;;30.92;48.18;100236.63;4465577;32;35129;-81
2023/08/22 05:55:14;;;;;;;13.50;11.18;;;;;;;31.02;47.79;100237.19;4465893;32;32749;-80
2023/08/22 05:57:42;;;;;;;12.65;10.20;;;;;;;31.06;47.79;100233.53;4440707;32;32480;-81
2023/08/22 06:00:11;;;;;;;14.98;10.18;;;;;;;30.96;48.08;100235.62;4464035;32;33725;-80
2023/08/22 06:02:43;;;;;;;12.40;10.27;;;;;;;31.00;48.16;100239.06;4466520;32;34251;-79
2023/08/22 06:05:12;;;;;;;14.23;10.55;;;;;;;30.85;48.64;100244.88;4466563;32;34192;-81
2023/08/22 06:07:39;;;;;;;18.15;10.63;;;;;;;30.98;48.23;100251.59;4467768;32;32410;-81
2023/08/22 06:10:07;;;;;;;16.48;9.73;;;;;;;30.75;48.62;100250.53;4468556;32;34329;-80
2023/08/22 06:12:35;;;;;;;12.55;10.10;;;;;;;31.02;48.10;100247.91;4468194;32;34091;-81
2023/08/22 06:15:03;;;;;;;13.52;10.10;;;;;;;31.12;47.88;100249.38;4468121;32;34798;-80
2023/08/22 06:17:31;;;;;;;15.45;9.80;;;;;;;31.46;47.12;100248.25;4467792;32;33853;-80
2023/08/22 06:19:59;;;;;;;13.00;9.88;;;;;;;31.40;47.60;100248.44;4467564;32;33979;-79
2023/08/22 06:22:26;;;;;;;11.95;9.50;;;;;;;31.53;47.45;100246.25;4458386;32;33033;-79
2023/08/22 06:24:54;;;;;;;13.30;10.23;;;;;;;31.63;47.58;100239.63;4464189;32;34420;-79
2023/08/22 06:27:23;;;;;;;13.27;10.20;;;;;;;31.72;47.75;100239.31;4468421;32;33356;-80
2023/08/22 06:29:50;;;;;;;12.13;9.10;;;;;;;32.01;47.12;100242.78;4468606;32;33920;-80
2023/08/22 06:32:21;;;;;;;12.93;9.23;;;;;;;32.03;46.92;100232.00;4463423;32;33212;-83
2023/08/22 06:34:49;;;;;;;10.88;9.38;;;;;;;32.10;46.61;100239.78;4467046;32;32875;-80
2023/08/22 06:37:19;;;;;;;17.08;10.10;;;;;;;32.25;46.30;100246.34;4466890;32;33919;-80
2023/08/22 06:39:46;;;;;;;10.85;9.10;;;;;;;32.39;45.96;100242.25;4464767;32;33387;-79
2023/08/22 06:42:15;;;;;;;16.10;9.02;;;;;;;32.80;45.11;100247.81;4463265;32;33652;-79
2023/08/22 06:44:47;;;;;;;12.60;9.52;;;;;;;32.51;44.63;100244.47;4464800;32;33960;-81
2023/08/22 06:47:15;;;;;;;12.10;9.73;;;;;;;32.60;44.91;100246.81;4469744;32;34710;-81
2023/08/22 06:49:43;;;;;;;10.57;8.57;;;;;;;32.63;45.36;100248.53;4469291;32;34461;-82
2023/08/22 06:52:11;;;;;;;11.95;8.80;;;;;;;32.76;45.26;100248.88;4469035;32;33516;-81
2023/08/22 06:54:38;;;;;;;11.73;8.82;;;;;;;32.78;44.41;100241.66;4469425;32;34659;-81
2023/08/22 06:57:06;;;;;;;11.48;8.98;;;;;;;33.12;43.96;100240.31;4469138;32;34687;-82
2023/08/22 06:59:34;;;;;;;13.25;9.60;;;;;;;33.24;43.65;100235.28;4469059;32;33476;-82
2023/08/22 07:02:03;;;;;;;10.30;8.57;;;;;;;33.04;44.50;100233.41;4468464;32;33236;-82
2023/08/22 07:04:31;;;;;;;12.43;9.02;;;;;;;33.03;44.33;100242.41;4466797;32;32534;-82
2023/08/22 07:07:00;;;;;;;12.63;8.85;;;;;;;33.43;43.63;100240.75;4469065;32;33444;-82
2023/08/22 07:09:28;;;;;;;18.95;9.30;;;;;;;33.65;43.30;100239.84;4468557;32;34246;-82
2023/08/22 07:11:55;;;;;;;11.57;8.38;;;;;;;33.95;42.46;100247.50;4467847;32;31921;-80
2023/08/22 07:14:25;;;;;;;11.38;8.52;;;;;;;34.08;42.56;100238.78;4467806;32;33939;-82
2023/08/22 07:16:53;;;;;;;13.82;7.82;;;;;;;34.18;42.08;100243.78;4467495;32;33823;-82
2023/08/22 07:19:21;;;;;;;11.88;7.95;;;;;;;34.18;41.73;100254.53;4468752;32;33750;-83
2023/08/22 07:22:08;;;;;;;11.82;8.18;;;;;;;34.36;41.52;100242.06;4465834;32;33027;-81
2023/08/22 07:24:36;;;;;;;13.95;8.57;;;;;;;34.73;40.37;100234.94;4464250;32;33682;-82
2023/08/22 07:27:03;;;;;;;12.07;8.90;;;;;;;34.50;40.82;100238.69;4460732;32;34483;-82
2023/08/22 07:29:31;;;;;;;11.05;8.13;;;;;;;34.68;40.90;100232.47;4463743;32;34109;-82
2023/08/22 07:31:59;;;;;;;13.05;8.82;;;;;;;34.51;40.78;100235.94;4466433;32;33730;-83
2023/08/22 07:34:27;;;;;;;12.07;8.88;;;;;;;34.79;40.34;100237.31;4466687;32;34564;-81
2023/08/22 07:36:55;;;;;;;8.68;7.47;;;;;;;34.98;40.14;100240.87;4464537;32;34394;-82
2023/08/22 07:39:23;;;;;;;11.70;8.82;;;;;;;35.82;38.24;100249.19;4461194;32;33117;-82
2023/08/22 07:41:53;;;;;;;16.75;8.52;;;;;;;35.78;38.17;100234.13;4462827;32;32396;-82
2023/08/22 07:44:23;;;;;;;10.73;8.00;;;;;;;35.51;37.93;100236.44;4462237;32;33885;-83
2023/08/22 07:46:51;;;;;;;11.73;7.70;;;;;;;36.12;37.58;100237.72;4466327;32;34567;-82
2023/08/22 07:49:18;;;;;;;11.30;8.43;;;;;;;36.50;37.03;100229.34;4465585;32;33817;-82
2023/08/22 07:51:46;;;;;;;8.90;7.80;;;;;;;36.55;37.02;100232.66;4467620;32;33304;-81
2023/08/22 07:54:14;;;;;;;12.23;8.38;;;;;;;36.63;36.99;100229.53;4465560;32;33674;-81
2023/08/22 07:56:42;;;;;;;13.65;8.55;;;;;;;37.38;36.03;100229.72;4464691;32;33520;-80
2023/08/22 07:59:10;;;;;;;14.07;9.02;;;;;;;37.64;35.86;100232.69;4465093;32;33998;-81
2023/08/22 08:01:37;;;;;;;15.20;8.68;;;;;;;37.25;36.83;100236.81;4465480;32;33282;-80
2023/08/22 08:04:06;;;;;;;13.77;8.70;;;;;;;37.26;35.97;100228.59;4468748;32;34611;-79
2023/08/22 08:06:35;;;;;;;11.20;8.02;;;;;;;37.62;35.87;100232.78;4465648;32;34236;-79
2023/08/22 08:09:06;;;;;;;11.12;8.35;;;;;;;37.87;35.86;100233.97;4467896;32;33469;-80
2023/08/22 08:11:40;;;;;;;11.88;8.68;;;;;;;38.35;34.68;100234.56;4468425;32;33207;-80
2023/08/22 08:14:07;;;;;;;11.05;8.18;;;;;;;38.80;33.35;100229.84;4468762;32;34731;-79
2023/08/22 08:16:35;;;;;;;11.23;8.82;;;;;;;38.57;33.67;100228.66;4468618;32;34450;-79
2023/08/22 08:19:07;;;;;;;11.12;8.45;;;;;;;38.94;33.45;100232.53;4468764;32;34009;-79
2023/08/22 08:21:35;;;;;;;9.80;8.10;;;;;;;39.29;33.62;100233.81;4468413;32;34454;-80
2023/08/22 08:24:04;;;;;;;10.18;8.20;;;;;;;39.36;33.51;100231.56;4468630;32;33848;-79
2023/08/22 08:26:32;;;;;;;20.35;10.15;;;;;;;39.05;33.00;100239.06;4468296;32;34318;-80
2023/08/22 08:28:59;;;;;;;15.68;8.45;;;;;;;39.53;32.56;100242.16;4468565;32;33799;-80
2023/08/22 08:31:27;;;;;;;14.25;7.95;;;;;;;39.93;32.03;100231.25;4468750;32;33217;-80
2023/08/22 08:33:55;;;;;;;12.18;8.40;;;;;;;40.24;32.06;100229.91;4468802;32;34928;-79
2023/08/22 08:36:22;;;;;;;11.65;8.40;;;;;;;40.70;30.47;100225.66;4468436;32;34743;-80
2023/08/22 08:38:50;;;;;;;12.30;8.85;;;;;;;40.04;30.68;100233.16;4468517;32;33754;-79
2023/08/22 08:41:20;;;;;;;13.18;8.05;;;;;;;40.58;30.08;100232.00;4468520;32;33405;-79
2023/08/22 08:43:48;;;;;;;10.68;7.80;;;;;;;40.90;30.36;100231.50;4468187;32;33912;-79
2023/08/22 08:46:15;;;;;;;9.48;8.02;;;;;;;41.04;30.40;100226.72;4468429;32;33644;-80
2023/08/22 08:48:44;;;;;;;11.80;9.50;;;;;;;41.05;30.07;100224.91;4468755;32;33841;-79
2023/08/22 08:51:11;;;;;;;11.57;8.80;;;;;;;41.67;28.44;100231.03;4467278;32;34045;-79
2023/08/22 08:53:39;;;;;;;10.48;8.15;;;;;;;41.85;27.71;100230.44;4467138;32;34020;-80
2023/08/22 08:56:09;;;;;;;16.52;8.45;;;;;;;41.99;28.01;100221.19;4468188;32;33587;-79
2023/08/22 08:58:38;;;;;;;11.70;8.15;;;;;;;41.72;28.14;100217.97;4468028;32;36185;-79
2023/08/22 09:01:07;;;;;;;9.95;7.75;;;;;;;42.50;28.16;100216.25;4467694;32;33401;-80
2023/08/22 09:03:35;;;;;;;10.73;8.20;;;;;;;42.90;27.64;100215.66;4466000;32;33979;-80
2023/08/22 09:06:04;;;;;;;12.90;8.25;;;;;;;43.00;25.66;100205.72;4466926;32;33915;-81
2023/08/22 09:08:31;;;;;;;11.20;8.32;;;;;;;43.04;26.78;100207.19;4462891;32;33655;-81
2023/08/22 09:10:59;;;;;;;11.55;8.43;;;;;;;42.73;26.19;100204.31;4460402;32;34749;-80
2023/08/22 09:13:27;;;;;;;14.02;7.93;;;;;;;43.57;25.37;100198.97;4461296;32;33894;-80
2023/08/22 09:16:16;;;;;;;9.25;8.25;;;;;;;43.02;26.54;100201.03;4467097;32;34720;-80
2023/08/22 09:18:43;;;;;;;11.02;7.85;;;;;;;43.44;26.01;100198.31;4467945;32;34584;-78
2023/08/22 09:21:11;;;;;;;10.25;7.75;;;;;;;43.80;25.05;100198.84;4467214;32;33366;-81
2023/08/22 09:23:40;;;;;;;10.35;7.43;;;;;;;43.48;25.01;100188.88;4466986;32;33770;-82
2023/08/22 09:26:10;;;;;;;10.50;7.97;;;;;;;43.13;24.24;100195.47;4467188;32;33761;-81
2023/08/22 09:28:41;;;;;;;10.02;7.90;;;;;;;43.53;25.38;100192.06;4467492;32;34403;-81
2023/08/22 09:31:08;;;;;;;10.93;7.78;;;;;;;44.02;24.75;100196.91;4466888;32;33327;-82
2023/08/22 09:33:46;;;;;;;11.48;7.87;;;;;;;43.93;23.27;100194.03;4463449;32;33458;-81
2023/08/22 09:36:21;;;;;;;11.23;7.93;;;;;;;44.54;23.68;100192.22;4467511;32;34003;-81
2023/08/22 09:38:56;;;;;;;11.52;7.70;;;;;;;43.41;23.58;100187.69;4469366;32;34477;-80
2023/08/22 09:41:26;;;;;;;10.27;7.72;;;;;;;44.10;23.97;100184.34;4465356;32;33121;-80
2023/08/22 09:44:01;;;;;;;9.32;7.72;;;;;;;44.78;24.49;100177.28;4468338;32;33860;-80
2023/08/22 09:46:29;;;;;;;8.90;7.30;;;;;;;44.34;23.75;100183.97;4468226;32;34035;-79
2023/08/22 09:48:59;;;;;;;9.75;7.35;;;;;;;44.51;23.48;100176.16;4467982;32;33152;-82
2023/08/22 09:51:27;;;;;;;9.10;8.20;;;;;;;44.91;22.53;100169.69;4466920;32;31376;-81
2023/08/22 09:53:59;;;;;;;9.40;7.75;;;;;;;44.61;22.85;100168.81;4465477;32;33960;-80
2023/08/22 09:56:27;;;;;;;8.00;7.20;;;;;;;44.11;22.69;100168.84;4466746;32;32180;-81
2023/08/22 09:58:55;;;;;;;8.65;7.47;;;;;;;44.53;22.40;100165.94;4463483;32;187742;-79
2023/08/22 10:01:24;;;;;;;12.90;7.72;;;;;;;44.43;23.15;100167.75;4469035;32;33237;-81
2023/08/22 10:03:59;;;;;;;9.32;7.10;;;;;;;43.98;22.04;100161.69;4467376;32;33940;-81
2023/08/22 10:06:31;;;;;;;8.02;7.22;;;;;;;44.50;22.99;100152.56;4469321;32;33415;-80
2023/08/22 10:09:13;;;;;;;9.57;7.10;;;;;;;44.78;22.57;100160.91;4464631;32;33559;-82
2023/08/22 10:11:52;;;;;;;11.10;7.40;;;;;;;44.48;22.18;100160.00;4465480;32;34242;-80
2023/08/22 10:14:32;;;;;;;8.25;7.40;;;;;;;44.63;22.67;100158.59;4464917;32;33813;-80
2023/08/22 10:17:00;;;;;;;10.75;7.57;;;;;;;44.63;22.64;100153.13;4461370;32;33858;-80
2023/08/22 10:19:29;;;;;;;9.48;7.93;;;;;;;45.20;22.53;100152.41;4465527;32;33898;-82
2023/08/22 10:22:13;;;;;;;10.38;8.02;;;;;;;45.53;22.12;100154.66;4464560;32;33158;-79
2023/08/22 10:24:42;;;;;;;9.85;7.45;;;;;;;45.28;22.62;100150.72;4464105;32;33567;-81
2023/08/22 10:27:14;;;;;;;10.30;7.40;;;;;;;45.10;21.72;100145.06;4466393;32;33865;-80
2023/08/22 10:29:46;;;;;;;9.07;7.87;;;;;;;44.95;21.52;100141.06;4466082;32;33589;-80
2023/08/22 10:32:14;;;;;;;8.82;7.93;;;;;;;45.30;21.58;100143.22;4468080;32;33297;-81
2023/08/22 10:34:41;;;;;;;9.40;7.97;;;;;;;45.10;21.62;100145.06;4468880;32;34490;-80
2023/08/22 10:37:11;;;;;;;8.60;7.28;;;;;;;45.38;22.15;100145.22;4467089;32;34073;-79
2023/08/22 10:39:41;;;;;;;6.68;5.50;;;;;;;45.79;21.94;100144.94;4469024;32;33740;-83
2023/08/22 10:42:35;;;;;;;8.23;7.00;;;;;;;46.01;19.50;100138.19;4467976;32;32955;-82
2023/08/22 10:45:15;;;;;;;8.15;7.22;;;;;;;45.62;20.51;100138.34;4466313;32;34592;-79
2023/08/22 10:47:47;;;;;;;8.57;6.55;;;;;;;45.75;21.27;100138.91;4468509;32;33912;-83
2023/08/22 10:50:16;;;;;;;7.80;6.85;;;;;;;45.65;21.48;100140.81;4467858;32;34515;-80
2023/08/22 10:52:44;;;;;;;9.73;7.30;;;;;;;45.89;20.71;100135.66;4463781;32;33213;-80
2023/08/22 10:55:13;;;;;;;8.18;7.30;;;;;;;46.15;20.33;100135.00;4468950;32;33584;-79
2023/08/22 10:57:41;;;;;;;;;;;;;;;45.60;21.12;100140.38;4467481;32;33618;-82
2023/08/22 11:00:18;;;;;;;;;;;;;;;46.02;20.61;100134.47;4468963;32;34828;-81
2023/08/22 11:02:49;;;;;;;;;;;;;;;45.82;21.40;100131.84;4468564;32;34063;-80
2023/08/22 11:05:17;;;;;;;;;;;;;;;46.07;20.82;100126.66;4467937;32;34720;-78
2023/08/22 11:07:54;;;;;;;;;;;;;;;45.53;21.08;100124.56;4466983;32;34805;-79
2023/08/22 11:10:22;;;;;;;;;;;;;;;45.92;21.45;100121.69;4465640;32;34885;-80
2023/08/22 11:12:50;;;;;;;;;;;;;;;46.19;20.05;100121.81;4466228;32;33444;-82
2023/08/22 11:15:17;;;;;;;;;;;;;;;45.90;20.96;100120.97;4466194;32;32767;-81
2023/08/22 11:17:46;;;;;;;;;;;;;;;45.38;21.34;100119.72;4464091;32;33961;-79
2023/08/22 11:20:15;;;;;;;;;;;;;;;46.03;19.89;100115.13;4467724;32;34175;-82
2023/08/22 11:22:43;;;;;;;;;;;;;;;46.05;20.32;100117.75;4465327;32;33178;-80
2023/08/22 11:25:11;;;;;;;;;;;;;;;46.15;20.23;100118.56;4469208;32;34090;-80
2023/08/22 11:27:39;;;;;;;;;;;;;;;46.07;19.35;100110.22;4466315;32;32471;-80
2023/08/22 11:30:07;;;;;;;;;;;;;;;46.02;20.50;100112.56;4468707;32;34828;-82
2023/08/22 11:32:36;;;;;;;;;;;;;;;45.99;20.58;100110.12;4458054;32;33179;-82
2023/08/22 11:35:05;;;;;;;;;;;;;;;45.40;20.74;100113.09;4464097;32;33876;-81
2023/08/22 11:37:32;;;;;;;;;;;;;;;45.50;20.64;100111.19;4467242;32;34090;-79
2023/08/22 11:40:00;;;;;;;;;;;;;;;46.06;20.32;100097.56;4467641;32;34772;-82
2023/08/22 11:42:32;;;;;;;;;;;;;;;45.56;20.83;100100.66;4468862;32;33291;-80
2023/08/22 11:45:13;;;;;;;8.88;7.47;;;;;;;43.90;21.29;100100.66;4468508;32;34875;-82
2023/08/22 11:47:49;;;;;;;;;;;;;;;44.61;22.09;100099.66;4467723;32;33605;-81
2023/08/22 11:50:17;;;;;;;;;;;;;;;44.99;20.45;100093.31;4467550;32;33999;-79
2023/08/22 11:52:48;;;;;;;;;;;;;;;45.67;20.62;100095.03;4460354;32;31969;-81
2023/08/22 11:55:29;;;;;;;11.40;8.20;;;;;;;45.49;19.83;100098.53;4466519;32;34036;-81
2023/08/22 11:58:02;;;;;;;8.65;7.50;;;;;;;45.31;19.65;100097.56;4464724;32;34329;-79